sensor_id;sensor_type;location;lat;lon;timestamp;temperature;humidity
18777;DHT22;9517;51.174;4.160;2024-02-23T00:01:54;5.30;99.90
18777;DHT22;9517;51.174;4.160;2024-02-23T00:04:21;5.40;99.90
18777;DHT22;9517;51.174;4.160;2024-02-23T00:23:40;5.30;99.90
18777;DHT22;9517;51.174;4.160;2024-02-23T00:26:07;5.30;99.90
18777;DHT22;9517;51.174;4.160;2024-02-23T00:28:34;5.20;99.90
18777;DHT22;9517;51.174;4.160;2024-02-23T00:31:01;5.30;99.90
18777;DHT22;9517;51.174;4.160;2024-02-23T00:33:29;5.30;99.90
18777;DHT22;9517;51.174;4.160;2024-02-23T00:35:56;5.30;99.90
18777;DHT22;9517;51.174;4.160;2024-02-23T00:38:23;5.30;99.90
18777;DHT22;9517;51.174;4.160;2024-02-23T00:40:51;5.30;99.90
18777;DHT22;9517;51.174;4.160;2024-02-23T00:43:19;5.40;99.90
18777;DHT22;9517;51.174;4.160;2024-02-23T00:45:46;5.40;99.90
18777;DHT22;9517;51.174;4.160;2024-02-23T00:48:13;5.40;99.90
18777;DHT22;9517;51.174;4.160;2024-02-23T00:50:40;5.40;99.90
18777;DHT22;9517;51.174;4.160;2024-02-23T00:53:07;5.40;99.90
18777;DHT22;9517;51.174;4.160;2024-02-23T00:55:34;5.40;99.90
18777;DHT22;9517;51.174;4.160;2024-02-23T00:58:02;5.40;99.90
18777;DHT22;9517;51.174;4.160;2024-02-23T01:00:30;5.40;99.90
18777;DHT22;9517;51.174;4.160;2024-02-23T01:02:57;5.40;99.90
18777;DHT22;9517;51.174;4.160;2024-02-23T01:05:26;5.40;99.90
18777;DHT22;9517;51.174;4.160;2024-02-23T01:07:52;5.40;99.90
18777;DHT22;9517;51.174;4.160;2024-02-23T01:10:20;5.40;99.90
18777;DHT22;9517;51.174;4.160;2024-02-23T01:12:47;5.30;99.90
18777;DHT22;9517;51.174;4.160;2024-02-23T01:15:16;5.30;99.90
18777;DHT22;9517;51.174;4.160;2024-02-23T01:17:43;5.20;99.90
18777;DHT22;9517;51.174;4.160;2024-02-23T01:20:10;5.20;99.90
18777;DHT22;9517;51.174;4.160;2024-02-23T01:22:38;5.20;99.90
18777;DHT22;9517;51.174;4.160;2024-02-23T01:25:08;5.20;99.90
18777;DHT22;9517;51.174;4.160;2024-02-23T01:27:35;5.20;99.90
18777;DHT22;9517;51.174;4.160;2024-02-23T01:30:03;5.20;99.90
18777;DHT22;9517;51.174;4.160;2024-02-23T01:32:32;5.20;99.90
18777;DHT22;9517;51.174;4.160;2024-02-23T01:34:59;5.10;99.90
18777;DHT22;9517;51.174;4.160;2024-02-23T01:37:26;5.10;99.90
18777;DHT22;9517;51.174;4.160;2024-02-23T01:39:53;5.10;99.90
18777;DHT22;9517;51.174;4.160;2024-02-23T01:42:20;5.10;99.90
18777;DHT22;9517;51.174;4.160;2024-02-23T01:44:47;5.10;99.90
18777;DHT22;9517;51.174;4.160;2024-02-23T01:47:15;5.10;99.90
18777;DHT22;9517;51.174;4.160;2024-02-23T01:49:44;5.10;99.90
18777;DHT22;9517;51.174;4.160;2024-02-23T01:52:13;5.10;99.90
18777;DHT22;9517;51.174;4.160;2024-02-23T01:54:40;5.10;99.90
18777;DHT22;9517;51.174;4.160;2024-02-23T01:57:09;5.10;99.90
18777;DHT22;9517;51.174;4.160;2024-02-23T01:59:37;5.20;99.90
18777;DHT22;9517;51.174;4.160;2024-02-23T02:02:04;5.30;99.90
18777;DHT22;9517;51.174;4.160;2024-02-23T02:04:31;5.30;99.90
18777;DHT22;9517;51.174;4.160;2024-02-23T02:07:01;5.20;99.90
18777;DHT22;9517;51.174;4.160;2024-02-23T02:09:28;5.10;99.90
18777;DHT22;9517;51.174;4.160;2024-02-23T02:11:55;4.90;99.90
18777;DHT22;9517;51.174;4.160;2024-02-23T02:14:22;4.90;99.90
18777;DHT22;9517;51.174;4.160;2024-02-23T02:16:49;4.90;99.90
18777;DHT22;9517;51.174;4.160;2024-02-23T02:19:16;4.90;99.90
18777;DHT22;9517;51.174;4.160;2024-02-23T02:21:43;5.00;99.90
18777;DHT22;9517;51.174;4.160;2024-02-23T02:24:11;5.00;99.90
18777;DHT22;9517;51.174;4.160;2024-02-23T02:26:38;5.00;99.90
18777;DHT22;9517;51.174;4.160;2024-02-23T02:29:05;5.00;99.90
18777;DHT22;9517;51.174;4.160;2024-02-23T02:31:32;5.00;99.90
18777;DHT22;9517;51.174;4.160;2024-02-23T02:34:03;5.00;99.90
18777;DHT22;9517;51.174;4.160;2024-02-23T02:36:30;5.00;99.90
18777;DHT22;9517;51.174;4.160;2024-02-23T02:38:57;5.10;99.90
18777;DHT22;9517;51.174;4.160;2024-02-23T02:41:29;5.10;99.90
18777;DHT22;9517;51.174;4.160;2024-02-23T02:43:56;5.10;99.90
18777;DHT22;9517;51.174;4.160;2024-02-23T02:46:23;5.10;99.90
18777;DHT22;9517;51.174;4.160;2024-02-23T02:48:50;5.10;99.90
18777;DHT22;9517;51.174;4.160;2024-02-23T02:51:17;5.10;99.90
18777;DHT22;9517;51.174;4.160;2024-02-23T02:53:44;5.10;99.90
18777;DHT22;9517;51.174;4.160;2024-02-23T02:56:11;5.20;99.90
18777;DHT22;9517;51.174;4.160;2024-02-23T02:58:39;5.10;99.90
18777;DHT22;9517;51.174;4.160;2024-02-23T03:01:06;5.10;99.90
18777;DHT22;9517;51.174;4.160;2024-02-23T03:03:33;5.20;99.90
18777;DHT22;9517;51.174;4.160;2024-02-23T03:06:00;5.20;99.90
18777;DHT22;9517;51.174;4.160;2024-02-23T03:08:27;5.20;99.90
18777;DHT22;9517;51.174;4.160;2024-02-23T03:10:54;5.30;99.90
18777;DHT22;9517;51.174;4.160;2024-02-23T03:13:22;5.30;99.90
18777;DHT22;9517;51.174;4.160;2024-02-23T03:15:51;5.20;99.90
18777;DHT22;9517;51.174;4.160;2024-02-23T03:18:18;5.20;99.90
18777;DHT22;9517;51.174;4.160;2024-02-23T03:20:45;5.30;99.90
18777;DHT22;9517;51.174;4.160;2024-02-23T03:23:12;5.30;99.90
18777;DHT22;9517;51.174;4.160;2024-02-23T03:25:39;5.30;99.90
18777;DHT22;9517;51.174;4.160;2024-02-23T03:28:06;5.30;99.90
18777;DHT22;9517;51.174;4.160;2024-02-23T03:30:33;5.30;99.90
18777;DHT22;9517;51.174;4.160;2024-02-23T03:33:01;5.30;99.90
18777;DHT22;9517;51.174;4.160;2024-02-23T03:35:28;5.30;99.90
18777;DHT22;9517;51.174;4.160;2024-02-23T03:37:55;5.40;99.90
18777;DHT22;9517;51.174;4.160;2024-02-23T03:40:22;5.30;99.90
18777;DHT22;9517;51.174;4.160;2024-02-23T03:42:49;5.40;99.90
18777;DHT22;9517;51.174;4.160;2024-02-23T03:45:16;5.40;99.90
18777;DHT22;9517;51.174;4.160;2024-02-23T03:47:43;5.40;99.90
18777;DHT22;9517;51.174;4.160;2024-02-23T03:50:12;5.40;99.90
18777;DHT22;9517;51.174;4.160;2024-02-23T03:52:39;5.50;99.90
18777;DHT22;9517;51.174;4.160;2024-02-23T03:55:07;5.50;99.90
18777;DHT22;9517;51.174;4.160;2024-02-23T03:57:34;5.50;99.90
18777;DHT22;9517;51.174;4.160;2024-02-23T04:00:01;5.50;99.90
18777;DHT22;9517;51.174;4.160;2024-02-23T04:02:28;5.60;99.90
18777;DHT22;9517;51.174;4.160;2024-02-23T04:04:55;5.60;99.90
18777;DHT22;9517;51.174;4.160;2024-02-23T04:07:24;5.50;99.90
18777;DHT22;9517;51.174;4.160;2024-02-23T04:09:51;5.70;99.90
18777;DHT22;9517;51.174;4.160;2024-02-23T04:12:20;5.70;99.90
18777;DHT22;9517;51.174;4.160;2024-02-23T04:14:47;5.60;99.90
18777;DHT22;9517;51.174;4.160;2024-02-23T04:17:15;5.60;99.90
18777;DHT22;9517;51.174;4.160;2024-02-23T04:19:43;5.60;99.90
18777;DHT22;9517;51.174;4.160;2024-02-23T04:22:11;5.50;99.90
18777;DHT22;9517;51.174;4.160;2024-02-23T04:24:40;5.40;99.90
18777;DHT22;9517;51.174;4.160;2024-02-23T04:27:08;5.30;99.90
18777;DHT22;9517;51.174;4.160;2024-02-23T04:29:35;5.30;99.90
18777;DHT22;9517;51.174;4.160;2024-02-23T04:32:02;5.30;99.90
18777;DHT22;9517;51.174;4.160;2024-02-23T04:34:29;5.30;99.90
18777;DHT22;9517;51.174;4.160;2024-02-23T04:36:56;5.30;99.90
18777;DHT22;9517;51.174;4.160;2024-02-23T04:39:23;5.30;99.90
18777;DHT22;9517;51.174;4.160;2024-02-23T04:41:52;5.30;99.90
18777;DHT22;9517;51.174;4.160;2024-02-23T04:44:19;5.30;99.90
18777;DHT22;9517;51.174;4.160;2024-02-23T04:46:46;5.30;99.90
18777;DHT22;9517;51.174;4.160;2024-02-23T04:49:14;5.30;99.90
18777;DHT22;9517;51.174;4.160;2024-02-23T04:51:41;5.40;99.90
18777;DHT22;9517;51.174;4.160;2024-02-23T04:54:07;5.40;99.90
18777;DHT22;9517;51.174;4.160;2024-02-23T04:56:34;5.40;99.90
18777;DHT22;9517;51.174;4.160;2024-02-23T04:59:03;5.40;99.90
18777;DHT22;9517;51.174;4.160;2024-02-23T05:01:35;5.40;99.90
18777;DHT22;9517;51.174;4.160;2024-02-23T05:04:02;5.40;99.90
18777;DHT22;9517;51.174;4.160;2024-02-23T05:06:29;5.30;99.90
18777;DHT22;9517;51.174;4.160;2024-02-23T05:08:56;5.40;99.90
18777;DHT22;9517;51.174;4.160;2024-02-23T05:11:23;5.40;99.90
18777;DHT22;9517;51.174;4.160;2024-02-23T05:13:50;5.40;99.90
18777;DHT22;9517;51.174;4.160;2024-02-23T05:16:19;5.50;99.90
18777;DHT22;9517;51.174;4.160;2024-02-23T05:18:48;5.50;99.90
18777;DHT22;9517;51.174;4.160;2024-02-23T05:21:16;5.40;99.90
18777;DHT22;9517;51.174;4.160;2024-02-23T05:23:43;5.50;99.90
18777;DHT22;9517;51.174;4.160;2024-02-23T05:26:12;5.40;99.90
18777;DHT22;9517;51.174;4.160;2024-02-23T05:28:40;5.40;99.90
18777;DHT22;9517;51.174;4.160;2024-02-23T05:31:09;5.30;99.90
18777;DHT22;9517;51.174;4.160;2024-02-23T05:33:48;5.30;99.90
18777;DHT22;9517;51.174;4.160;2024-02-23T05:36:17;5.20;99.90
18777;DHT22;9517;51.174;4.160;2024-02-23T05:38:44;5.30;99.90
18777;DHT22;9517;51.174;4.160;2024-02-23T05:41:12;5.30;99.90
18777;DHT22;9517;51.174;4.160;2024-02-23T05:43:39;5.20;99.90
18777;DHT22;9517;51.174;4.160;2024-02-23T05:46:09;5.20;99.90
18777;DHT22;9517;51.174;4.160;2024-02-23T05:48:38;5.20;99.90
18777;DHT22;9517;51.174;4.160;2024-02-23T05:51:05;5.30;99.90
18777;DHT22;9517;51.174;4.160;2024-02-23T05:53:32;5.40;99.90
18777;DHT22;9517;51.174;4.160;2024-02-23T05:56:00;5.40;99.90
18777;DHT22;9517;51.174;4.160;2024-02-23T05:58:27;5.40;99.90
18777;DHT22;9517;51.174;4.160;2024-02-23T06:00:54;5.50;99.90
18777;DHT22;9517;51.174;4.160;2024-02-23T06:03:21;5.50;99.90
18777;DHT22;9517;51.174;4.160;2024-02-23T06:05:49;5.60;99.90
18777;DHT22;9517;51.174;4.160;2024-02-23T06:08:17;5.50;99.90
18777;DHT22;9517;51.174;4.160;2024-02-23T06:10:44;5.40;99.90
18777;DHT22;9517;51.174;4.160;2024-02-23T06:13:11;5.40;99.90
18777;DHT22;9517;51.174;4.160;2024-02-23T06:15:38;5.40;99.90
18777;DHT22;9517;51.174;4.160;2024-02-23T06:18:06;5.50;99.90
18777;DHT22;9517;51.174;4.160;2024-02-23T06:20:33;5.40;99.90
18777;DHT22;9517;51.174;4.160;2024-02-23T06:23:01;5.60;99.90
18777;DHT22;9517;51.174;4.160;2024-02-23T06:25:36;5.60;99.90
18777;DHT22;9517;51.174;4.160;2024-02-23T06:28:03;5.80;99.90
18777;DHT22;9517;51.174;4.160;2024-02-23T06:30:30;5.70;99.90
18777;DHT22;9517;51.174;4.160;2024-02-23T06:32:58;5.80;99.90
18777;DHT22;9517;51.174;4.160;2024-02-23T06:35:25;5.80;99.90
18777;DHT22;9517;51.174;4.160;2024-02-23T06:37:51;5.70;99.90
18777;DHT22;9517;51.174;4.160;2024-02-23T06:40:20;5.80;99.90
18777;DHT22;9517;51.174;4.160;2024-02-23T06:42:47;6.00;99.90
18777;DHT22;9517;51.174;4.160;2024-02-23T06:45:16;6.00;99.90
18777;DHT22;9517;51.174;4.160;2024-02-23T06:47:44;5.90;99.90
18777;DHT22;9517;51.174;4.160;2024-02-23T06:50:11;5.90;99.90
18777;DHT22;9517;51.174;4.160;2024-02-23T06:52:40;5.90;99.90
18777;DHT22;9517;51.174;4.160;2024-02-23T06:55:09;6.00;99.90
18777;DHT22;9517;51.174;4.160;2024-02-23T06:57:38;6.00;99.90
18777;DHT22;9517;51.174;4.160;2024-02-23T07:00:06;6.00;99.90
18777;DHT22;9517;51.174;4.160;2024-02-23T07:02:34;6.00;99.90
18777;DHT22;9517;51.174;4.160;2024-02-23T07:05:03;6.10;99.90
18777;DHT22;9517;51.174;4.160;2024-02-23T07:07:35;6.00;99.90
18777;DHT22;9517;51.174;4.160;2024-02-23T07:10:02;6.00;99.90
18777;DHT22;9517;51.174;4.160;2024-02-23T07:12:29;6.00;99.90
18777;DHT22;9517;51.174;4.160;2024-02-23T07:14:58;6.00;99.90
18777;DHT22;9517;51.174;4.160;2024-02-23T07:17:25;6.10;99.90
18777;DHT22;9517;51.174;4.160;2024-02-23T07:19:53;6.10;99.90
18777;DHT22;9517;51.174;4.160;2024-02-23T07:22:29;6.20;99.90
18777;DHT22;9517;51.174;4.160;2024-02-23T07:24:58;6.30;99.90
18777;DHT22;9517;51.174;4.160;2024-02-23T07:27:27;6.30;99.90
18777;DHT22;9517;51.174;4.160;2024-02-23T07:29:54;6.30;99.90
18777;DHT22;9517;51.174;4.160;2024-02-23T07:32:22;6.40;99.90
18777;DHT22;9517;51.174;4.160;2024-02-23T07:34:49;6.40;99.90
18777;DHT22;9517;51.174;4.160;2024-02-23T07:37:17;6.40;99.90
18777;DHT22;9517;51.174;4.160;2024-02-23T07:39:44;6.30;99.90
18777;DHT22;9517;51.174;4.160;2024-02-23T07:42:11;6.40;99.90
18777;DHT22;9517;51.174;4.160;2024-02-23T07:44:40;6.40;99.90
18777;DHT22;9517;51.174;4.160;2024-02-23T07:47:07;6.40;99.90
18777;DHT22;9517;51.174;4.160;2024-02-23T07:49:37;6.40;99.90
18777;DHT22;9517;51.174;4.160;2024-02-23T07:52:06;6.40;99.90
18777;DHT22;9517;51.174;4.160;2024-02-23T07:54:33;6.40;99.90
18777;DHT22;9517;51.174;4.160;2024-02-23T07:57:01;6.40;99.90
18777;DHT22;9517;51.174;4.160;2024-02-23T07:59:30;6.20;99.90
18777;DHT22;9517;51.174;4.160;2024-02-23T08:01:58;6.10;99.90
18777;DHT22;9517;51.174;4.160;2024-02-23T08:04:25;6.00;99.90
18777;DHT22;9517;51.174;4.160;2024-02-23T08:06:54;6.00;99.90
18777;DHT22;9517;51.174;4.160;2024-02-23T08:09:21;5.80;99.90
18777;DHT22;9517;51.174;4.160;2024-02-23T08:11:49;5.80;99.90
18777;DHT22;9517;51.174;4.160;2024-02-23T08:14:17;5.70;99.90
18777;DHT22;9517;51.174;4.160;2024-02-23T08:16:44;5.70;99.90
18777;DHT22;9517;51.174;4.160;2024-02-23T08:19:12;5.70;99.90
18777;DHT22;9517;51.174;4.160;2024-02-23T08:21:39;5.70;99.90
18777;DHT22;9517;51.174;4.160;2024-02-23T08:24:11;5.80;99.90
18777;DHT22;9517;51.174;4.160;2024-02-23T08:26:38;5.80;99.90
18777;DHT22;9517;51.174;4.160;2024-02-23T08:29:08;5.80;99.90
18777;DHT22;9517;51.174;4.160;2024-02-23T08:31:40;5.90;99.90
18777;DHT22;9517;51.174;4.160;2024-02-23T08:34:07;5.90;99.90
18777;DHT22;9517;51.174;4.160;2024-02-23T08:36:34;5.90;99.90
18777;DHT22;9517;51.174;4.160;2024-02-23T08:39:04;5.90;99.90
18777;DHT22;9517;51.174;4.160;2024-02-23T08:41:34;6.00;99.90
18777;DHT22;9517;51.174;4.160;2024-02-23T08:44:05;6.10;99.90
18777;DHT22;9517;51.174;4.160;2024-02-23T08:46:38;6.10;99.90
18777;DHT22;9517;51.174;4.160;2024-02-23T08:49:11;6.30;99.90
18777;DHT22;9517;51.174;4.160;2024-02-23T08:51:40;6.30;99.90
18777;DHT22;9517;51.174;4.160;2024-02-23T08:54:07;6.40;99.90
18777;DHT22;9517;51.174;4.160;2024-02-23T08:56:38;6.50;99.90
18777;DHT22;9517;51.174;4.160;2024-02-23T08:59:08;6.60;99.90
18777;DHT22;9517;51.174;4.160;2024-02-23T09:01:36;6.50;99.90
18777;DHT22;9517;51.174;4.160;2024-02-23T09:04:03;6.50;99.90
18777;DHT22;9517;51.174;4.160;2024-02-23T09:06:30;6.40;99.90
18777;DHT22;9517;51.174;4.160;2024-02-23T09:08:58;6.60;99.90
18777;DHT22;9517;51.174;4.160;2024-02-23T09:11:25;6.60;99.90
18777;DHT22;9517;51.174;4.160;2024-02-23T09:13:54;6.60;99.90
18777;DHT22;9517;51.174;4.160;2024-02-23T09:16:21;6.70;99.90
18777;DHT22;9517;51.174;4.160;2024-02-23T09:18:51;6.70;99.90
18777;DHT22;9517;51.174;4.160;2024-02-23T09:21:18;6.80;99.90
18777;DHT22;9517;51.174;4.160;2024-02-23T09:23:46;6.80;99.90
18777;DHT22;9517;51.174;4.160;2024-02-23T09:26:13;6.80;99.90
18777;DHT22;9517;51.174;4.160;2024-02-23T09:28:40;6.90;99.90
18777;DHT22;9517;51.174;4.160;2024-02-23T09:31:09;6.90;99.90
18777;DHT22;9517;51.174;4.160;2024-02-23T09:33:38;6.80;99.90
18777;DHT22;9517;51.174;4.160;2024-02-23T09:36:16;6.80;99.90
18777;DHT22;9517;51.174;4.160;2024-02-23T09:38:43;6.80;99.90
18777;DHT22;9517;51.174;4.160;2024-02-23T09:41:18;6.80;99.90
18777;DHT22;9517;51.174;4.160;2024-02-23T09:43:47;6.80;99.90
18777;DHT22;9517;51.174;4.160;2024-02-23T09:46:16;7.00;99.90
18777;DHT22;9517;51.174;4.160;2024-02-23T09:48:45;6.90;99.90
18777;DHT22;9517;51.174;4.160;2024-02-23T09:51:13;6.90;99.90
18777;DHT22;9517;51.174;4.160;2024-02-23T09:53:41;7.00;99.90
18777;DHT22;9517;51.174;4.160;2024-02-23T09:56:09;7.10;99.90
18777;DHT22;9517;51.174;4.160;2024-02-23T09:58:37;7.00;99.90
18777;DHT22;9517;51.174;4.160;2024-02-23T10:01:06;7.20;99.90
18777;DHT22;9517;51.174;4.160;2024-02-23T10:03:35;7.40;99.90
18777;DHT22;9517;51.174;4.160;2024-02-23T10:06:03;7.30;99.90
18777;DHT22;9517;51.174;4.160;2024-02-23T10:08:31;7.40;99.90
18777;DHT22;9517;51.174;4.160;2024-02-23T10:11:00;7.30;99.90
18777;DHT22;9517;51.174;4.160;2024-02-23T10:13:31;7.30;99.90
18777;DHT22;9517;51.174;4.160;2024-02-23T10:15:59;7.30;99.90
18777;DHT22;9517;51.174;4.160;2024-02-23T10:18:26;7.30;99.90
18777;DHT22;9517;51.174;4.160;2024-02-23T10:20:55;7.30;99.90
18777;DHT22;9517;51.174;4.160;2024-02-23T10:23:23;7.50;99.90
18777;DHT22;9517;51.174;4.160;2024-02-23T10:25:50;7.50;99.90
18777;DHT22;9517;51.174;4.160;2024-02-23T10:28:18;7.50;99.90
18777;DHT22;9517;51.174;4.160;2024-02-23T10:30:48;7.50;99.90
18777;DHT22;9517;51.174;4.160;2024-02-23T10:33:17;7.50;99.90
18777;DHT22;9517;51.174;4.160;2024-02-23T10:35:46;7.50;99.90
18777;DHT22;9517;51.174;4.160;2024-02-23T10:38:18;7.50;99.90
18777;DHT22;9517;51.174;4.160;2024-02-23T10:40:47;7.60;99.90
18777;DHT22;9517;51.174;4.160;2024-02-23T10:43:19;7.70;99.90
18777;DHT22;9517;51.174;4.160;2024-02-23T10:45:46;7.70;99.90
18777;DHT22;9517;51.174;4.160;2024-02-23T10:48:14;7.70;99.90
18777;DHT22;9517;51.174;4.160;2024-02-23T10:50:41;7.80;99.90
18777;DHT22;9517;51.174;4.160;2024-02-23T10:53:10;8.00;99.90
18777;DHT22;9517;51.174;4.160;2024-02-23T10:55:40;8.10;99.90
18777;DHT22;9517;51.174;4.160;2024-02-23T10:58:10;8.30;99.90
18777;DHT22;9517;51.174;4.160;2024-02-23T11:00:41;8.50;99.90
18777;DHT22;9517;51.174;4.160;2024-02-23T11:03:11;8.60;99.90
18777;DHT22;9517;51.174;4.160;2024-02-23T11:05:40;8.80;99.90
18777;DHT22;9517;51.174;4.160;2024-02-23T11:08:07;9.00;99.90
18777;DHT22;9517;51.174;4.160;2024-02-23T11:10:43;9.40;99.90
18777;DHT22;9517;51.174;4.160;2024-02-23T11:13:15;9.60;99.90
18777;DHT22;9517;51.174;4.160;2024-02-23T11:15:43;9.60;99.90
18777;DHT22;9517;51.174;4.160;2024-02-23T11:18:22;9.40;99.90
18777;DHT22;9517;51.174;4.160;2024-02-23T11:20:54;9.20;99.90
18777;DHT22;9517;51.174;4.160;2024-02-23T11:23:27;9.00;99.90
18777;DHT22;9517;51.174;4.160;2024-02-23T11:26:07;8.90;99.90
18777;DHT22;9517;51.174;4.160;2024-02-23T11:28:43;8.70;99.90
18777;DHT22;9517;51.174;4.160;2024-02-23T11:31:13;8.60;99.90
18777;DHT22;9517;51.174;4.160;2024-02-23T11:33:47;8.50;99.90
18777;DHT22;9517;51.174;4.160;2024-02-23T11:36:22;8.30;99.90
18777;DHT22;9517;51.174;4.160;2024-02-23T11:38:52;8.30;99.90
18777;DHT22;9517;51.174;4.160;2024-02-23T11:41:23;8.30;99.90
18777;DHT22;9517;51.174;4.160;2024-02-23T11:43:51;8.30;99.90
18777;DHT22;9517;51.174;4.160;2024-02-23T11:46:18;8.30;99.90
18777;DHT22;9517;51.174;4.160;2024-02-23T11:48:46;8.30;99.90
18777;DHT22;9517;51.174;4.160;2024-02-23T11:51:19;8.40;99.90
18777;DHT22;9517;51.174;4.160;2024-02-23T11:53:46;8.60;99.90
18777;DHT22;9517;51.174;4.160;2024-02-23T11:56:14;8.80;99.90
18777;DHT22;9517;51.174;4.160;2024-02-23T11:58:42;8.90;99.90
18777;DHT22;9517;51.174;4.160;2024-02-23T12:01:10;8.80;99.90
18777;DHT22;9517;51.174;4.160;2024-02-23T12:03:40;8.70;99.90
18777;DHT22;9517;51.174;4.160;2024-02-23T12:06:10;8.80;99.90
18777;DHT22;9517;51.174;4.160;2024-02-23T12:08:37;9.00;99.90
18777;DHT22;9517;51.174;4.160;2024-02-23T12:11:05;8.80;99.90
18777;DHT22;9517;51.174;4.160;2024-02-23T12:13:34;8.80;99.90
18777;DHT22;9517;51.174;4.160;2024-02-23T12:16:03;8.70;99.90
18777;DHT22;9517;51.174;4.160;2024-02-23T12:18:33;8.50;99.90
18777;DHT22;9517;51.174;4.160;2024-02-23T12:21:00;8.60;99.90
18777;DHT22;9517;51.174;4.160;2024-02-23T12:23:39;8.60;99.90
18777;DHT22;9517;51.174;4.160;2024-02-23T12:26:06;8.60;99.90
18777;DHT22;9517;51.174;4.160;2024-02-23T12:28:33;8.80;99.90
18777;DHT22;9517;51.174;4.160;2024-02-23T12:31:03;9.00;99.90
18777;DHT22;9517;51.174;4.160;2024-02-23T12:33:32;9.10;99.90
18777;DHT22;9517;51.174;4.160;2024-02-23T12:36:00;9.10;99.90
18777;DHT22;9517;51.174;4.160;2024-02-23T12:38:27;9.40;99.90
18777;DHT22;9517;51.174;4.160;2024-02-23T12:40:55;9.10;99.90
18777;DHT22;9517;51.174;4.160;2024-02-23T12:43:22;9.00;99.90
18777;DHT22;9517;51.174;4.160;2024-02-23T12:45:50;8.80;99.90
18777;DHT22;9517;51.174;4.160;2024-02-23T12:48:19;8.80;99.90
18777;DHT22;9517;51.174;4.160;2024-02-23T12:50:47;8.70;99.90
18777;DHT22;9517;51.174;4.160;2024-02-23T12:53:31;8.80;99.90
18777;DHT22;9517;51.174;4.160;2024-02-23T12:56:00;9.30;99.90
18777;DHT22;9517;51.174;4.160;2024-02-23T12:58:28;10.00;99.90
18777;DHT22;9517;51.174;4.160;2024-02-23T13:00:55;10.60;99.90
18777;DHT22;9517;51.174;4.160;2024-02-23T13:03:25;11.10;99.90
18777;DHT22;9517;51.174;4.160;2024-02-23T13:05:53;11.40;99.90
18777;DHT22;9517;51.174;4.160;2024-02-23T13:08:22;11.30;99.90
18777;DHT22;9517;51.174;4.160;2024-02-23T13:10:49;11.10;99.90
18777;DHT22;9517;51.174;4.160;2024-02-23T13:13:17;12.10;99.90
18777;DHT22;9517;51.174;4.160;2024-02-23T13:15:44;12.70;99.90
18777;DHT22;9517;51.174;4.160;2024-02-23T13:18:11;13.10;99.90
18777;DHT22;9517;51.174;4.160;2024-02-23T13:20:41;12.30;99.90
18777;DHT22;9517;51.174;4.160;2024-02-23T13:23:08;11.40;99.90
18777;DHT22;9517;51.174;4.160;2024-02-23T13:25:37;11.00;99.90
18777;DHT22;9517;51.174;4.160;2024-02-23T13:28:05;10.50;99.90
18777;DHT22;9517;51.174;4.160;2024-02-23T13:30:33;10.50;99.90
18777;DHT22;9517;51.174;4.160;2024-02-23T13:33:01;10.80;99.90
18777;DHT22;9517;51.174;4.160;2024-02-23T13:35:28;10.70;99.90
18777;DHT22;9517;51.174;4.160;2024-02-23T13:37:56;10.60;99.90
18777;DHT22;9517;51.174;4.160;2024-02-23T13:40:24;11.10;99.90
18777;DHT22;9517;51.174;4.160;2024-02-23T13:42:51;11.10;99.90
18777;DHT22;9517;51.174;4.160;2024-02-23T13:45:19;11.30;99.90
18777;DHT22;9517;51.174;4.160;2024-02-23T13:47:56;10.90;99.90
18777;DHT22;9517;51.174;4.160;2024-02-23T13:50:23;10.70;99.90
18777;DHT22;9517;51.174;4.160;2024-02-23T13:52:51;10.60;99.90
18777;DHT22;9517;51.174;4.160;2024-02-23T13:55:20;10.50;99.90
18777;DHT22;9517;51.174;4.160;2024-02-23T13:57:47;10.30;99.90
18777;DHT22;9517;51.174;4.160;2024-02-23T14:00:16;10.10;99.90
18777;DHT22;9517;51.174;4.160;2024-02-23T14:02:44;9.70;99.90
18777;DHT22;9517;51.174;4.160;2024-02-23T14:05:12;9.80;99.90
18777;DHT22;9517;51.174;4.160;2024-02-23T14:07:40;9.70;99.90
18777;DHT22;9517;51.174;4.160;2024-02-23T14:10:08;9.60;99.90
18777;DHT22;9517;51.174;4.160;2024-02-23T14:12:37;9.70;99.90
18777;DHT22;9517;51.174;4.160;2024-02-23T14:15:05;9.60;99.90
18777;DHT22;9517;51.174;4.160;2024-02-23T14:17:32;9.90;99.90
18777;DHT22;9517;51.174;4.160;2024-02-23T14:20:00;9.90;99.90
18777;DHT22;9517;51.174;4.160;2024-02-23T14:22:27;10.10;99.90
18777;DHT22;9517;51.174;4.160;2024-02-23T14:24:55;10.00;99.90
18777;DHT22;9517;51.174;4.160;2024-02-23T14:27:22;10.20;99.90
18777;DHT22;9517;51.174;4.160;2024-02-23T14:29:50;10.30;99.90
18777;DHT22;9517;51.174;4.160;2024-02-23T14:32:18;10.30;99.90
18777;DHT22;9517;51.174;4.160;2024-02-23T14:34:45;10.10;99.90
18777;DHT22;9517;51.174;4.160;2024-02-23T14:37:12;10.00;99.90
18777;DHT22;9517;51.174;4.160;2024-02-23T14:39:39;10.00;99.90
18777;DHT22;9517;51.174;4.160;2024-02-23T14:42:06;9.90;99.90
18777;DHT22;9517;51.174;4.160;2024-02-23T14:44:35;9.90;99.90
18777;DHT22;9517;51.174;4.160;2024-02-23T14:47:04;10.00;99.90
18777;DHT22;9517;51.174;4.160;2024-02-23T14:49:32;10.30;99.90
18777;DHT22;9517;51.174;4.160;2024-02-23T14:51:59;10.30;99.90
18777;DHT22;9517;51.174;4.160;2024-02-23T14:54:26;9.90;99.90
18777;DHT22;9517;51.174;4.160;2024-02-23T14:56:55;9.80;99.90
18777;DHT22;9517;51.174;4.160;2024-02-23T14:59:22;9.70;99.90
18777;DHT22;9517;51.174;4.160;2024-02-23T15:01:49;9.50;99.90
18777;DHT22;9517;51.174;4.160;2024-02-23T15:04:18;9.40;99.90
18777;DHT22;9517;51.174;4.160;2024-02-23T15:06:47;9.40;99.90
18777;DHT22;9517;51.174;4.160;2024-02-23T15:09:14;9.60;99.90
18777;DHT22;9517;51.174;4.160;2024-02-23T15:11:42;9.50;99.90
18777;DHT22;9517;51.174;4.160;2024-02-23T15:14:09;9.60;99.90
18777;DHT22;9517;51.174;4.160;2024-02-23T15:16:36;9.40;99.90
18777;DHT22;9517;51.174;4.160;2024-02-23T15:19:05;9.40;99.90
18777;DHT22;9517;51.174;4.160;2024-02-23T15:21:33;9.30;99.90
18777;DHT22;9517;51.174;4.160;2024-02-23T15:24:06;9.20;99.90
18777;DHT22;9517;51.174;4.160;2024-02-23T15:26:33;9.20;99.90
18777;DHT22;9517;51.174;4.160;2024-02-23T15:29:00;8.80;99.90
18777;DHT22;9517;51.174;4.160;2024-02-23T15:31:28;7.90;99.90
18777;DHT22;9517;51.174;4.160;2024-02-23T15:33:56;7.20;99.90
18777;DHT22;9517;51.174;4.160;2024-02-23T15:36:25;6.70;99.90
18777;DHT22;9517;51.174;4.160;2024-02-23T15:38:54;6.40;99.90
18777;DHT22;9517;51.174;4.160;2024-02-23T15:41:24;6.10;99.90
18777;DHT22;9517;51.174;4.160;2024-02-23T15:43:51;6.10;99.90
18777;DHT22;9517;51.174;4.160;2024-02-23T15:46:18;6.60;99.90
18777;DHT22;9517;51.174;4.160;2024-02-23T15:48:48;7.40;99.90
18777;DHT22;9517;51.174;4.160;2024-02-23T15:51:17;7.90;99.90
18777;DHT22;9517;51.174;4.160;2024-02-23T15:53:45;8.00;99.90
18777;DHT22;9517;51.174;4.160;2024-02-23T15:56:17;7.90;99.90
18777;DHT22;9517;51.174;4.160;2024-02-23T15:58:44;8.00;99.90
18777;DHT22;9517;51.174;4.160;2024-02-23T16:01:11;7.90;99.90
18777;DHT22;9517;51.174;4.160;2024-02-23T16:03:39;7.90;99.90
18777;DHT22;9517;51.174;4.160;2024-02-23T16:06:06;7.70;99.90
18777;DHT22;9517;51.174;4.160;2024-02-23T16:08:41;7.60;99.90
18777;DHT22;9517;51.174;4.160;2024-02-23T16:11:09;7.50;99.90
18777;DHT22;9517;51.174;4.160;2024-02-23T16:13:39;7.50;99.90
18777;DHT22;9517;51.174;4.160;2024-02-23T16:16:07;7.60;99.90
18777;DHT22;9517;51.174;4.160;2024-02-23T16:18:35;7.50;99.90
18777;DHT22;9517;51.174;4.160;2024-02-23T16:21:03;7.60;99.90
18777;DHT22;9517;51.174;4.160;2024-02-23T16:23:37;7.70;99.90